createdAt,value
2023-03-29T00:02:36.130Z,3.45
2023-03-29T00:05:25.921Z,3.08
2023-03-29T00:08:14.805Z,3.40
2023-03-29T00:11:03.962Z,3.30
2023-03-29T00:13:51.013Z,3.38
2023-03-29T00:16:39.591Z,3.03
2023-03-29T00:19:24.866Z,3.67
2023-03-29T00:22:10.844Z,3.00
2023-03-29T00:24:56.253Z,3.50
2023-03-29T00:27:42.489Z,3.17
2023-03-29T00:30:27.804Z,3.55
2023-03-29T00:33:15.016Z,3.28
2023-03-29T00:36:04.179Z,3.20
2023-03-29T00:38:49.738Z,3.42
2023-03-29T00:41:35.166Z,3.63
2023-03-29T00:44:58.659Z,3.90
2023-03-29T00:48:11.359Z,3.83
2023-03-29T00:51:03.866Z,3.55
2023-03-29T00:53:53.697Z,4.40
2023-03-29T00:56:46.556Z,3.55
2023-03-29T00:59:35.648Z,3.80
2023-03-29T01:02:27.537Z,3.42
2023-03-29T01:05:20.201Z,3.95
2023-03-29T01:08:11.100Z,4.15
2023-03-29T01:11:14.680Z,4.10
2023-03-29T01:14:06.378Z,4.07
2023-03-29T01:16:53.273Z,3.60
2023-03-29T01:19:46.611Z,4.13
2023-03-29T01:22:47.108Z,4.00
2023-03-29T01:26:01.093Z,3.78
2023-03-29T01:28:52.532Z,4.20
2023-03-29T01:31:42.408Z,3.78
2023-03-29T01:34:37.638Z,3.92
2023-03-29T01:37:35.101Z,3.88
2023-03-29T01:40:21.595Z,4.20
2023-03-29T01:43:36.434Z,4.47
2023-03-29T01:47:20.672Z,3.53
2023-03-29T01:50:12.295Z,3.70
2023-03-29T01:53:02.677Z,3.90
2023-03-29T01:55:56.365Z,3.92
2023-03-29T01:58:52.356Z,4.60
2023-03-29T02:01:43.764Z,4.70
2023-03-29T02:04:39.935Z,4.28
2023-03-29T02:07:37.256Z,3.95
2023-03-29T02:10:25.768Z,4.15
2023-03-29T02:13:11.640Z,4.80
2023-03-29T02:16:00.269Z,4.47
2023-03-29T02:18:48.838Z,4.10
2023-03-29T02:21:40.205Z,4.30
2023-03-29T02:24:30.790Z,4.25
2023-03-29T02:27:16.547Z,4.32
2023-03-29T02:30:01.972Z,4.03
2023-03-29T02:33:02.121Z,4.40
2023-03-29T02:35:59.960Z,4.22
2023-03-29T02:38:46.589Z,4.15
2023-03-29T02:41:32.889Z,4.68
2023-03-29T02:44:26.290Z,4.63
2023-03-29T02:47:25.472Z,4.22
2023-03-29T02:50:12.046Z,4.25
2023-03-29T02:53:05.104Z,4.38
2023-03-29T02:55:52.837Z,3.97
2023-03-29T02:58:38.692Z,4.68
2023-03-29T03:01:24.419Z,4.43
2023-03-29T03:04:11.036Z,4.47
2023-03-29T03:06:56.602Z,4.57
2023-03-29T03:09:42.824Z,4.43
2023-03-29T03:12:28.547Z,4.03
2023-03-29T03:15:14.697Z,4.15
2023-03-29T03:18:00.739Z,4.57
2023-03-29T03:21:01.761Z,4.88
2023-03-29T03:23:48.520Z,4.50
2023-03-29T03:26:36.015Z,4.15
2023-03-29T03:29:27.017Z,4.47
2023-03-29T03:32:33.484Z,4.75
2023-03-29T03:35:39.306Z,5.10
2023-03-29T03:38:26.119Z,5.13
2023-03-29T03:41:16.410Z,4.97
2023-03-29T03:44:02.552Z,4.55
2023-03-29T03:46:49.096Z,4.57
2023-03-29T03:49:35.114Z,4.22
2023-03-29T03:52:20.753Z,4.78
2023-03-29T03:55:06.593Z,4.30
2023-03-29T03:58:07.162Z,4.60
2023-03-29T04:00:53.069Z,4.80
2023-03-29T04:03:51.930Z,4.47
2023-03-29T04:06:40.192Z,5.43
2023-03-29T04:09:46.449Z,4.80
2023-03-29T04:12:51.084Z,5.38
2023-03-29T04:15:38.791Z,5.50
2023-03-29T04:18:28.467Z,4.60
2023-03-29T04:21:17.457Z,4.75
2023-03-29T04:24:04.942Z,4.90
2023-03-29T04:26:56.116Z,5.05
2023-03-29T04:29:44.874Z,4.57
2023-03-29T04:32:39.760Z,4.85
2023-03-29T04:35:27.582Z,5.35
2023-03-29T04:38:13.199Z,4.72
2023-03-29T04:41:05.644Z,4.95
2023-03-29T04:44:02.741Z,6.50
2023-03-29T04:46:49.418Z,5.35
2023-03-29T04:49:53.508Z,5.55
2023-03-29T04:52:50.686Z,4.82
2023-03-29T04:55:35.806Z,5.00
2023-03-29T04:58:25.245Z,5.03
2023-03-29T05:01:15.238Z,5.95
2023-03-29T05:04:05.896Z,5.85
2023-03-29T05:06:57.780Z,6.30
2023-03-29T05:09:43.755Z,6.05
2023-03-29T05:12:33.413Z,5.13
2023-03-29T05:15:19.501Z,5.55
2023-03-29T05:18:06.889Z,5.20
2023-03-29T05:20:54.056Z,5.85
2023-03-29T05:23:40.597Z,5.40
2023-03-29T05:26:26.700Z,6.03
2023-03-29T05:29:14.097Z,5.38
2023-03-29T05:32:02.378Z,5.95
2023-03-29T05:34:47.964Z,5.90
2023-03-29T05:37:34.777Z,4.93
2023-03-29T05:40:24.720Z,6.20
2023-03-29T05:43:33.680Z,5.40
2023-03-29T05:46:19.830Z,5.65
2023-03-29T05:49:10.539Z,6.43
2023-03-29T05:52:21.059Z,5.95
2023-03-29T05:55:08.119Z,5.95
2023-03-29T05:57:53.509Z,6.20
2023-03-29T06:00:43.749Z,6.57
2023-03-29T06:03:47.332Z,6.88
2023-03-29T06:06:36.106Z,6.97
2023-03-29T06:09:26.010Z,6.75
2023-03-29T06:12:20.441Z,7.22
2023-03-29T06:15:16.736Z,6.53
2023-03-29T06:18:06.238Z,6.50
2023-03-29T06:20:56.764Z,6.85
2023-03-29T06:23:48.744Z,6.65
2023-03-29T06:26:36.756Z,6.40
2023-03-29T06:29:22.542Z,6.35
2023-03-29T06:32:08.862Z,6.82
2023-03-29T06:35:05.145Z,6.50
2023-03-29T06:38:05.620Z,6.68
2023-03-29T06:41:13.710Z,6.25
2023-03-29T06:44:19.624Z,6.45
2023-03-29T06:47:18.544Z,6.75
2023-03-29T06:50:09.993Z,6.97
2023-03-29T06:53:04.379Z,6.10
2023-03-29T06:55:52.477Z,6.30
2023-03-29T06:58:58.397Z,6.50
2023-03-29T07:02:04.350Z,6.72
2023-03-29T07:05:06.988Z,6.95
2023-03-29T07:08:02.874Z,6.65
2023-03-29T07:11:13.289Z,7.20
2023-03-29T07:14:13.211Z,7.50
2023-03-29T07:16:59.582Z,6.57
2023-03-29T07:19:53.767Z,7.65
2023-03-29T07:22:58.436Z,7.70
2023-03-29T07:25:50.479Z,7.25
2023-03-29T07:28:39.965Z,7.35
2023-03-29T07:31:25.688Z,7.72
2023-03-29T07:34:18.928Z,7.20
2023-03-29T07:37:04.303Z,7.25
2023-03-29T07:39:50.848Z,7.38
2023-03-29T07:43:03.062Z,7.45
2023-03-29T07:45:54.153Z,7.72
2023-03-29T07:48:40.254Z,8.38
2023-03-29T07:51:31.972Z,8.45
2023-03-29T07:54:25.729Z,7.85
2023-03-29T07:57:17.055Z,8.25
2023-03-29T08:00:17.219Z,8.45
2023-03-29T08:03:13.347Z,8.00
2023-03-29T08:06:02.924Z,8.88
2023-03-29T08:08:48.546Z,9.07
2023-03-29T08:11:38.519Z,9.70
2023-03-29T08:14:31.266Z,9.68
2023-03-29T08:17:43.613Z,10.25
2023-03-29T08:20:28.958Z,10.70
2023-03-29T08:23:21.331Z,9.70
2023-03-29T08:26:29.863Z,10.48
2023-03-29T08:29:20.686Z,10.95
2023-03-29T08:32:08.710Z,10.88
2023-03-29T08:34:55.095Z,10.95
2023-03-29T08:37:44.328Z,11.07
2023-03-29T08:40:33.030Z,11.60
2023-03-29T08:43:34.647Z,10.80
2023-03-29T08:46:57.173Z,10.63
2023-03-29T08:49:53.987Z,11.88
2023-03-29T08:52:58.803Z,10.43
2023-03-29T08:56:27.263Z,12.05
2023-03-29T08:59:33.301Z,11.75
2023-03-29T09:02:28.430Z,11.70
2023-03-29T09:05:28.077Z,11.45
2023-03-29T09:08:24.285Z,10.90
2023-03-29T09:11:37.853Z,10.98
2023-03-29T09:14:41.124Z,10.27
2023-03-29T09:17:35.967Z,10.05
2023-03-29T09:20:42.575Z,9.35
2023-03-29T09:24:02.016Z,9.98
2023-03-29T09:27:10.719Z,9.73
2023-03-29T09:30:37.682Z,10.02
2023-03-29T09:33:30.958Z,9.13
2023-03-29T09:36:45.492Z,9.70
2023-03-29T09:39:31.571Z,9.95
2023-03-29T09:42:29.305Z,10.30
2023-03-29T09:45:15.054Z,10.70
2023-03-29T09:48:09.373Z,9.88
2023-03-29T09:50:55.880Z,10.90
2023-03-29T09:53:41.561Z,10.45
2023-03-29T09:56:40.290Z,10.32
2023-03-29T09:59:29.067Z,10.20
2023-03-29T10:02:14.598Z,10.25
2023-03-29T10:05:05.641Z,10.13
2023-03-29T10:07:53.684Z,9.65
2023-03-29T10:10:39.273Z,9.73
2023-03-29T10:13:43.897Z,8.98
2023-03-29T10:16:38.508Z,8.80
2023-03-29T10:19:35.776Z,8.90
2023-03-29T10:22:37.806Z,8.48
2023-03-29T10:25:31.234Z,7.60
2023-03-29T10:28:21.217Z,7.50
2023-03-29T10:31:08.472Z,7.32
2023-03-29T10:34:02.818Z,7.78
2023-03-29T10:37:01.350Z,10.25
2023-03-29T10:39:49.459Z,9.75
2023-03-29T10:42:34.956Z,10.15
2023-03-29T10:45:31.182Z,9.85
2023-03-29T10:48:18.089Z,10.80
2023-03-29T10:51:05.992Z,10.98
2023-03-29T10:53:51.644Z,11.10
2023-03-29T10:56:43.149Z,10.40
2023-03-29T10:59:38.121Z,12.13
2023-03-29T11:05:29.673Z,10.77
2023-03-29T11:08:32.106Z,12.40
2023-03-29T11:11:38.996Z,12.50
2023-03-29T11:14:44.645Z,11.18
2023-03-29T11:20:38.263Z,13.05
2023-03-29T11:23:42.799Z,12.25
2023-03-29T11:26:36.679Z,11.98
2023-03-29T11:29:35.318Z,11.85
2023-03-29T11:32:48.416Z,11.60
2023-03-29T11:35:57.364Z,11.88
2023-03-29T11:38:59.811Z,11.93
2023-03-29T11:41:49.645Z,12.40
2023-03-29T11:44:36.601Z,11.88
2023-03-29T11:47:24.611Z,12.45
2023-03-29T11:50:39.446Z,12.95
2023-03-29T11:54:19.641Z,12.50
2023-03-29T11:57:14.426Z,12.00
2023-03-29T12:00:30.784Z,13.02
2023-03-29T12:03:34.413Z,12.15
2023-03-29T12:06:48.253Z,11.75
2023-03-29T12:09:42.660Z,11.63
2023-03-29T12:13:05.869Z,12.73
2023-03-29T12:16:01.345Z,13.50
2023-03-29T12:18:50.004Z,12.40
2023-03-29T12:21:37.073Z,11.15
2023-03-29T12:24:25.288Z,12.50
2023-03-29T12:27:35.019Z,11.52
2023-03-29T12:30:49.634Z,11.25
2023-03-29T12:34:17.962Z,11.48
2023-03-29T12:37:47.046Z,10.60
2023-03-29T12:41:00.642Z,9.48
2023-03-29T12:44:07.752Z,8.82
2023-03-29T12:47:03.201Z,9.25
2023-03-29T12:49:56.554Z,8.32
2023-03-29T12:52:43.035Z,10.20
2023-03-29T12:55:48.715Z,12.27
2023-03-29T12:58:58.192Z,11.43
2023-03-29T13:02:02.732Z,11.93
2023-03-29T13:04:57.395Z,12.57
2023-03-29T13:07:47.532Z,11.63
2023-03-29T13:10:42.167Z,11.65
2023-03-29T13:13:40.614Z,10.25
2023-03-29T13:16:35.863Z,8.60
2023-03-29T13:19:55.701Z,8.38
2023-03-29T13:22:50.428Z,8.57
2023-03-29T13:26:16.073Z,8.57
2023-03-29T13:29:26.896Z,10.07
2023-03-29T13:32:21.463Z,9.57
2023-03-29T13:35:31.429Z,10.93
2023-03-29T13:38:27.840Z,10.88
2023-03-29T13:41:28.092Z,9.68
2023-03-29T13:44:46.008Z,10.55
2023-03-29T13:47:32.469Z,10.80
2023-03-29T13:50:52.397Z,9.65
2023-03-29T13:53:55.192Z,9.80
2023-03-29T13:56:52.496Z,10.32
2023-03-29T13:59:42.935Z,10.98
2023-03-29T14:02:40.829Z,10.93
2023-03-29T14:05:35.868Z,10.30
2023-03-29T14:08:29.470Z,9.43
2023-03-29T14:11:28.715Z,10.00
2023-03-29T14:14:14.964Z,9.77
2023-03-29T14:17:01.353Z,9.55
2023-03-29T14:19:48.443Z,9.63
2023-03-29T14:22:34.637Z,9.73
2023-03-29T14:25:22.715Z,9.75
2023-03-29T14:28:28.377Z,9.30
2023-03-29T14:31:22.962Z,8.52
2023-03-29T14:34:14.429Z,9.40
2023-03-29T14:37:00.052Z,8.75
2023-03-29T14:39:45.771Z,8.38
2023-03-29T14:42:36.981Z,8.10
2023-03-29T14:45:26.240Z,7.78
2023-03-29T14:48:17.139Z,7.80
2023-03-29T14:51:02.970Z,7.10
2023-03-29T14:53:55.504Z,6.78
2023-03-29T14:56:41.438Z,7.55
2023-03-29T14:59:38.864Z,6.95
2023-03-29T15:02:30.335Z,6.70
2023-03-29T15:05:34.860Z,7.93
2023-03-29T15:08:32.870Z,7.80
2023-03-29T15:11:24.692Z,8.75
2023-03-29T15:14:16.547Z,8.88
2023-03-29T15:17:14.867Z,8.07
2023-03-29T15:20:24.577Z,7.97
2023-03-29T15:23:17.358Z,8.52
2023-03-29T15:26:13.986Z,7.28
2023-03-29T15:29:25.923Z,6.53
2023-03-29T15:32:21.221Z,6.57
2023-03-29T15:35:09.312Z,7.13
2023-03-29T15:37:54.626Z,6.72
2023-03-29T15:40:42.423Z,6.68
2023-03-29T15:43:29.437Z,6.80
2023-03-29T15:46:16.361Z,6.93
2023-03-29T15:49:01.965Z,6.97
2023-03-29T15:51:47.721Z,6.03
2023-03-29T15:54:33.895Z,6.50
2023-03-29T15:57:20.012Z,6.60
2023-03-29T16:00:09.662Z,7.25
2023-03-29T16:03:01.515Z,7.25
2023-03-29T16:05:49.423Z,7.03
2023-03-29T16:08:36.421Z,6.50
2023-03-29T16:11:22.271Z,6.57
2023-03-29T16:14:29.801Z,7.22
2023-03-29T16:17:15.882Z,6.63
2023-03-29T16:20:01.363Z,7.30
2023-03-29T16:22:48.142Z,6.72
2023-03-29T16:25:34.263Z,6.95
2023-03-29T16:28:19.685Z,6.60
2023-03-29T16:31:05.845Z,6.07
2023-03-29T16:33:51.621Z,6.10
2023-03-29T16:36:37.431Z,6.28
2023-03-29T16:39:22.967Z,5.82
2023-03-29T16:42:11.351Z,5.60
2023-03-29T16:44:56.744Z,5.43
2023-03-29T16:47:45.541Z,5.10
2023-03-29T16:50:33.975Z,4.72
2023-03-29T16:53:21.718Z,4.10
2023-03-29T16:56:07.916Z,4.45
2023-03-29T16:58:53.158Z,4.40
2023-03-29T17:01:42.223Z,4.45
2023-03-29T17:04:27.913Z,4.40
2023-03-29T17:07:16.901Z,4.38
2023-03-29T17:10:04.742Z,4.07
2023-03-29T17:12:50.678Z,4.55
2023-03-29T17:15:39.409Z,4.70
2023-03-29T17:18:29.578Z,4.47
2023-03-29T17:21:16.387Z,4.65
2023-03-29T17:24:01.622Z,4.55
2023-03-29T17:26:47.180Z,4.60
2023-03-29T17:29:32.876Z,4.25
2023-03-29T17:32:18.160Z,4.13
2023-03-29T17:35:04.243Z,4.53
2023-03-29T17:37:49.658Z,3.72
2023-03-29T17:40:35.526Z,4.25
2023-03-29T17:43:21.128Z,4.82
2023-03-29T17:46:09.812Z,4.90
2023-03-29T17:48:58.739Z,5.15
2023-03-29T17:51:44.782Z,5.03
2023-03-29T17:54:30.729Z,5.45
2023-03-29T17:57:16.262Z,5.43
2023-03-29T18:00:01.923Z,5.97
2023-03-29T18:02:52.988Z,6.18
2023-03-29T18:05:38.592Z,5.78
2023-03-29T18:08:24.303Z,5.65
2023-03-29T18:11:22.319Z,6.28
2023-03-29T18:14:07.739Z,5.47
2023-03-29T18:16:57.088Z,5.90
2023-03-29T18:19:42.589Z,5.70
2023-03-29T18:22:28.604Z,5.82
2023-03-29T18:25:14.831Z,6.03
2023-03-29T18:28:03.050Z,6.15
2023-03-29T18:30:51.789Z,6.50
2023-03-29T18:33:37.432Z,6.70
2023-03-29T18:36:26.180Z,6.78
2023-03-29T18:39:13.562Z,6.22
2023-03-29T18:41:59.354Z,6.82
2023-03-29T18:44:44.749Z,7.47
2023-03-29T18:47:30.684Z,7.30
2023-03-29T18:50:15.935Z,7.15
2023-03-29T18:53:01.549Z,7.32
2023-03-29T18:55:47.184Z,6.47
2023-03-29T18:58:32.854Z,8.30
2023-03-29T19:01:21.944Z,7.97
2023-03-29T19:04:07.393Z,8.63
2023-03-29T19:06:53.848Z,8.55
2023-03-29T19:09:39.722Z,7.95
2023-03-29T19:12:25.296Z,8.13
2023-03-29T19:15:11.703Z,9.10
2023-03-29T19:17:57.168Z,8.95
2023-03-29T19:20:42.513Z,9.15
2023-03-29T19:23:28.307Z,9.05
2023-03-29T19:26:20.840Z,9.48
2023-03-29T19:29:06.567Z,9.40
2023-03-29T19:31:52.006Z,9.55
2023-03-29T19:34:37.504Z,8.70
2023-03-29T19:37:23.188Z,9.93
2023-03-29T19:40:11.167Z,10.27
2023-03-29T19:42:56.494Z,9.57
2023-03-29T19:45:50.112Z,9.82
2023-03-29T19:48:36.910Z,9.93
2023-03-29T19:51:24.423Z,10.20
2023-03-29T19:54:12.246Z,11.00
2023-03-29T19:56:58.094Z,10.38
2023-03-29T19:59:43.642Z,10.85
2023-03-29T20:02:29.156Z,9.88
2023-03-29T20:05:17.831Z,10.40
2023-03-29T20:08:03.469Z,9.88
2023-03-29T20:10:48.899Z,9.95
2023-03-29T20:13:38.883Z,9.25
2023-03-29T20:16:26.309Z,10.45
2023-03-29T20:19:14.169Z,10.15
2023-03-29T20:22:00.709Z,9.93
2023-03-29T20:24:46.273Z,9.18
2023-03-29T20:27:31.796Z,9.23
2023-03-29T20:30:17.495Z,9.20
2023-03-29T20:33:04.334Z,8.80
2023-03-29T20:35:51.038Z,9.20
2023-03-29T20:38:37.050Z,10.23
2023-03-29T20:41:22.851Z,9.13
2023-03-29T20:44:08.711Z,9.75
2023-03-29T20:47:03.276Z,8.30
2023-03-29T20:49:54.056Z,8.93
2023-03-29T20:52:39.825Z,8.82
2023-03-29T20:55:25.183Z,9.38
2023-03-29T20:58:10.751Z,9.13
2023-03-29T21:00:59.009Z,8.32
2023-03-29T21:03:44.456Z,8.18
2023-03-29T21:06:33.592Z,8.77
2023-03-29T21:09:21.788Z,8.57
2023-03-29T21:12:07.423Z,9.57
2023-03-29T21:14:52.922Z,8.93
2023-03-29T21:17:38.724Z,8.52
2023-03-29T21:20:24.397Z,8.93
2023-03-29T21:23:09.745Z,7.95
2023-03-29T21:25:56.198Z,7.80
2023-03-29T21:28:42.302Z,9.45
2023-03-29T21:31:27.920Z,7.80
2023-03-29T21:34:13.813Z,7.85
2023-03-29T21:37:00.263Z,7.53
2023-03-29T21:39:46.002Z,7.35
2023-03-29T21:42:32.380Z,7.00
2023-03-29T21:45:17.972Z,7.18
2023-03-29T21:48:03.512Z,6.82
2023-03-29T21:50:56.306Z,6.70
2023-03-29T21:53:41.857Z,6.78
2023-03-29T21:56:28.441Z,7.20
2023-03-29T21:59:14.352Z,6.68
2023-03-29T22:02:03.941Z,7.13
2023-03-29T22:04:49.344Z,6.68
2023-03-29T22:07:35.808Z,6.35
2023-03-29T22:10:22.848Z,6.57
2023-03-29T22:13:09.284Z,6.57
2023-03-29T22:15:56.356Z,5.38
2023-03-29T22:18:44.426Z,6.00
2023-03-29T22:21:31.175Z,6.20
2023-03-29T22:24:16.857Z,5.72
2023-03-29T22:27:02.830Z,5.45
2023-03-29T22:29:48.748Z,5.30
2023-03-29T22:32:34.095Z,5.40
2023-03-29T22:35:20.639Z,6.07
2023-03-29T22:38:06.239Z,6.45
2023-03-29T22:40:51.665Z,5.68
2023-03-29T22:43:37.560Z,6.20
2023-03-29T22:46:23.643Z,5.63
2023-03-29T22:49:14.719Z,6.25
2023-03-29T22:52:03.402Z,5.10
2023-03-29T22:54:48.876Z,6.10
2023-03-29T22:57:34.118Z,5.50
2023-03-29T23:00:20.738Z,5.38
2023-03-29T23:03:06.550Z,5.05
2023-03-29T23:05:55.991Z,4.90
2023-03-29T23:08:41.452Z,4.82
2023-03-29T23:11:26.857Z,4.25
2023-03-29T23:14:14.891Z,4.50
2023-03-29T23:17:10.198Z,4.80
2023-03-29T23:19:56.106Z,4.72
2023-03-29T23:22:41.678Z,4.30
2023-03-29T23:25:27.412Z,3.90
2023-03-29T23:28:13.589Z,3.50
2023-03-29T23:31:00.509Z,3.55
2023-03-29T23:33:46.059Z,3.60
2023-03-29T23:36:31.833Z,3.35
2023-03-29T23:39:17.382Z,2.70
2023-03-29T23:42:04.286Z,2.75
2023-03-29T23:44:49.772Z,2.65
2023-03-29T23:47:35.542Z,2.40
2023-03-29T23:50:22.502Z,2.10
2023-03-29T23:53:16.979Z,2.70
2023-03-29T23:56:04.598Z,2.63
2023-03-29T23:58:50.288Z,2.53
